createdAt,value
2022-11-19T00:01:12.079Z,7.44
2022-11-19T00:03:39.801Z,8.68
2022-11-19T00:06:13.834Z,8.86
2022-11-19T00:08:41.341Z,8.35
2022-11-19T00:11:10.122Z,8.74
2022-11-19T00:13:37.981Z,8.90
2022-11-19T00:16:06.410Z,9.09
2022-11-19T00:18:33.810Z,8.76
2022-11-19T00:21:05.123Z,8.67
2022-11-19T00:23:32.637Z,9.24
2022-11-19T00:26:09.996Z,8.29
2022-11-19T00:28:37.658Z,8.86
2022-11-19T00:31:05.825Z,8.70
2022-11-19T00:33:33.157Z,8.34
2022-11-19T00:36:00.916Z,8.93
2022-11-19T00:38:28.542Z,8.54
2022-11-19T00:40:55.728Z,8.21
2022-11-19T00:43:41.711Z,8.63
2022-11-19T00:46:09.028Z,8.66
2022-11-19T00:48:36.736Z,8.19
2022-11-19T00:51:03.995Z,8.31
2022-11-19T00:53:31.530Z,7.99
2022-11-19T00:56:02.278Z,8.05
2022-11-19T00:58:29.665Z,8.09
2022-11-19T01:00:57.104Z,8.46
2022-11-19T01:03:24.950Z,8.36
2022-11-19T01:05:52.281Z,8.86
2022-11-19T01:08:19.511Z,8.84
2022-11-19T01:10:47.011Z,9.10
2022-11-19T01:13:32.556Z,8.93
2022-11-19T01:16:00.091Z,9.05
2022-11-19T01:18:27.862Z,9.24
2022-11-19T01:20:55.442Z,9.23
2022-11-19T01:23:22.964Z,9.13
2022-11-19T01:25:50.204Z,9.03
2022-11-19T01:28:17.438Z,9.19
2022-11-19T01:30:44.854Z,9.27
2022-11-19T01:33:12.086Z,9.23
2022-11-19T01:35:39.318Z,9.23
2022-11-19T01:38:07.182Z,8.49
2022-11-19T01:40:40.790Z,8.86
2022-11-19T01:43:10.454Z,8.61
2022-11-19T01:45:37.641Z,8.79
2022-11-19T01:48:31.193Z,9.20
2022-11-19T01:51:05.829Z,8.93
2022-11-19T01:53:34.139Z,8.80
2022-11-19T01:56:04.183Z,9.05
2022-11-19T01:58:32.175Z,8.94
2022-11-19T02:00:59.678Z,9.12
2022-11-19T02:03:27.850Z,9.27
2022-11-19T02:05:55.120Z,9.23
2022-11-19T02:08:44.740Z,9.29
2022-11-19T02:11:30.749Z,9.25
2022-11-19T02:14:00.893Z,9.15
2022-11-19T02:16:47.086Z,8.95
2022-11-19T02:19:20.780Z,8.95
2022-11-19T02:22:06.673Z,8.82
2022-11-19T02:24:51.979Z,8.95
2022-11-19T02:27:34.806Z,8.97
2022-11-19T02:30:06.177Z,9.08
2022-11-19T02:32:35.051Z,9.13
2022-11-19T02:35:11.548Z,9.13
2022-11-19T02:37:44.188Z,9.03
2022-11-19T02:40:11.404Z,8.87
2022-11-19T02:42:50.472Z,8.94
2022-11-19T02:45:19.922Z,8.89
2022-11-19T02:47:48.201Z,8.76
2022-11-19T02:50:25.532Z,9.00
2022-11-19T02:52:53.009Z,8.86
2022-11-19T02:55:20.824Z,8.97
2022-11-19T02:58:06.529Z,8.73
2022-11-19T03:01:04.177Z,8.61
2022-11-19T03:03:49.809Z,9.05
2022-11-19T03:06:18.656Z,9.16
2022-11-19T03:08:45.848Z,9.05
2022-11-19T03:11:18.834Z,9.14
2022-11-19T03:14:20.966Z,8.90
2022-11-19T03:16:59.132Z,9.09
2022-11-19T03:19:38.475Z,9.13
2022-11-19T03:22:17.895Z,9.11
2022-11-19T03:25:14.554Z,9.04
2022-11-19T03:27:42.737Z,9.21
2022-11-19T03:30:10.567Z,9.32
2022-11-19T03:32:38.874Z,9.31
2022-11-19T03:35:08.059Z,9.16
2022-11-19T03:37:35.602Z,9.20
2022-11-19T03:40:02.813Z,8.59
2022-11-19T03:42:30.084Z,8.79
2022-11-19T03:45:00.045Z,9.00
2022-11-19T03:47:36.951Z,9.11
2022-11-19T03:50:10.664Z,9.15
2022-11-19T03:52:37.814Z,9.22
2022-11-19T03:55:05.375Z,9.24
2022-11-19T03:57:34.321Z,9.22
2022-11-19T04:00:01.581Z,8.91
2022-11-19T04:02:29.261Z,8.99
2022-11-19T04:04:56.784Z,9.10
2022-11-19T04:07:24.118Z,8.57
2022-11-19T04:09:51.398Z,9.00
2022-11-19T04:12:22.314Z,9.11
2022-11-19T04:14:49.699Z,9.14
2022-11-19T04:17:17.418Z,9.13
2022-11-19T04:19:44.978Z,9.06
2022-11-19T04:22:12.134Z,9.13
2022-11-19T04:24:39.390Z,9.11
2022-11-19T04:27:06.883Z,9.05
2022-11-19T04:29:34.041Z,8.90
2022-11-19T04:32:01.312Z,8.96
2022-11-19T04:34:28.841Z,9.04
2022-11-19T04:36:56.049Z,8.90
2022-11-19T04:39:23.446Z,9.09
2022-11-19T04:41:50.969Z,9.09
2022-11-19T04:44:18.245Z,8.75
2022-11-19T04:46:45.478Z,8.97
2022-11-19T04:49:12.978Z,9.08
2022-11-19T04:51:40.173Z,8.67
2022-11-19T04:54:08.766Z,8.95
2022-11-19T04:56:36.439Z,8.90
2022-11-19T04:59:03.793Z,9.02
2022-11-19T05:01:31.948Z,8.93
2022-11-19T05:03:59.475Z,9.00
2022-11-19T05:06:26.679Z,9.05
2022-11-19T05:08:53.859Z,9.00
2022-11-19T05:11:21.355Z,8.89
2022-11-19T05:13:48.533Z,8.88
2022-11-19T05:16:15.761Z,8.91
2022-11-19T05:18:43.192Z,8.78
2022-11-19T05:21:10.367Z,8.70
2022-11-19T05:23:37.696Z,8.72
2022-11-19T05:26:05.279Z,8.67
2022-11-19T05:28:38.861Z,8.62
2022-11-19T05:31:07.077Z,8.69
2022-11-19T05:33:34.759Z,8.83
2022-11-19T05:36:02.411Z,8.62
2022-11-19T05:38:29.883Z,8.67
2022-11-19T05:40:57.044Z,8.66
2022-11-19T05:43:24.230Z,8.77
2022-11-19T05:45:51.691Z,8.74
2022-11-19T05:48:18.853Z,8.73
2022-11-19T05:50:46.083Z,8.67
2022-11-19T05:53:13.539Z,8.55
2022-11-19T05:55:40.716Z,8.53
2022-11-19T05:58:07.890Z,8.31
2022-11-19T06:00:35.387Z,8.44
2022-11-19T06:03:02.930Z,8.34
2022-11-19T06:05:30.174Z,8.56
2022-11-19T06:07:57.565Z,8.15
2022-11-19T06:10:24.999Z,8.26
2022-11-19T06:12:52.172Z,8.29
2022-11-19T06:15:19.377Z,8.13
2022-11-19T06:17:46.817Z,8.29
2022-11-19T06:20:14.060Z,8.26
2022-11-19T06:22:41.309Z,8.48
2022-11-19T06:25:08.971Z,8.31
2022-11-19T06:27:36.180Z,8.53
2022-11-19T06:30:03.796Z,8.59
2022-11-19T06:32:31.608Z,8.58
2022-11-19T06:34:58.891Z,8.57
2022-11-19T06:37:26.040Z,8.60
2022-11-19T06:39:55.342Z,8.83
2022-11-19T06:42:38.231Z,9.09
2022-11-19T06:45:09.452Z,9.27
2022-11-19T06:47:36.831Z,9.41
2022-11-19T06:50:04.635Z,9.49
2022-11-19T06:52:32.111Z,9.89
2022-11-19T06:54:59.346Z,10.45
2022-11-19T06:57:26.648Z,11.12
2022-11-19T06:59:54.096Z,11.02
2022-11-19T07:02:21.826Z,11.64
2022-11-19T07:04:49.219Z,12.71
2022-11-19T07:07:16.893Z,13.07
2022-11-19T07:09:44.141Z,13.24
2022-11-19T07:12:11.382Z,13.09
2022-11-19T07:14:38.893Z,12.83
2022-11-19T07:17:06.272Z,12.41
2022-11-19T07:19:33.590Z,12.06
2022-11-19T07:22:01.043Z,11.72
2022-11-19T07:24:28.224Z,11.63
2022-11-19T07:26:55.550Z,11.50
2022-11-19T07:29:23.461Z,11.49
2022-11-19T07:31:53.206Z,11.66
2022-11-19T07:34:20.623Z,11.35
2022-11-19T07:36:48.234Z,11.55
2022-11-19T07:39:15.625Z,11.45
2022-11-19T07:42:01.715Z,12.45
2022-11-19T07:44:29.243Z,12.15
2022-11-19T07:46:56.431Z,12.47
2022-11-19T07:49:24.959Z,13.38
2022-11-19T07:51:52.903Z,13.90
2022-11-19T07:54:20.172Z,14.00
2022-11-19T07:56:47.386Z,14.04
2022-11-19T07:59:14.913Z,13.74
2022-11-19T08:01:42.271Z,13.82
2022-11-19T08:04:09.892Z,13.43
2022-11-19T08:06:37.368Z,12.53
2022-11-19T08:09:05.148Z,12.23
2022-11-19T08:11:32.672Z,11.56
2022-11-19T08:14:02.967Z,11.66
2022-11-19T08:16:50.510Z,11.78
2022-11-19T08:19:18.465Z,11.75
2022-11-19T08:21:46.555Z,11.57
2022-11-19T08:24:14.191Z,11.79
2022-11-19T08:26:41.629Z,12.10
2022-11-19T08:29:14.741Z,12.09
2022-11-19T08:31:44.378Z,12.33
2022-11-19T08:34:11.772Z,12.98
2022-11-19T08:36:38.946Z,13.37
2022-11-19T08:39:06.838Z,11.62
2022-11-19T08:41:52.746Z,12.48
2022-11-19T08:44:20.710Z,13.20
2022-11-19T08:46:48.113Z,13.97
2022-11-19T08:49:15.335Z,13.98
2022-11-19T08:51:42.818Z,13.55
2022-11-19T08:54:10.091Z,15.31
2022-11-19T08:56:37.324Z,15.16
2022-11-19T08:59:05.284Z,16.47
2022-11-19T09:01:32.510Z,17.12
2022-11-19T09:03:59.722Z,16.74
2022-11-19T09:06:27.218Z,17.53
2022-11-19T09:08:54.452Z,15.11
2022-11-19T09:11:21.913Z,16.96
2022-11-19T09:13:49.596Z,17.92
2022-11-19T09:16:16.866Z,17.20
2022-11-19T09:18:44.128Z,16.69
2022-11-19T09:21:11.731Z,15.97
2022-11-19T09:23:39.312Z,15.85
2022-11-19T09:26:07.762Z,15.38
2022-11-19T09:28:35.330Z,14.28
2022-11-19T09:31:15.648Z,14.06
2022-11-19T09:33:44.027Z,14.41
2022-11-19T09:36:11.719Z,14.56
2022-11-19T09:38:40.237Z,14.21
2022-11-19T09:41:26.656Z,14.85
2022-11-19T09:44:10.006Z,14.68
2022-11-19T09:46:46.758Z,14.15
2022-11-19T09:49:15.405Z,13.96
2022-11-19T09:51:43.069Z,13.12
2022-11-19T09:54:14.998Z,13.36
2022-11-19T09:56:43.478Z,12.92
2022-11-19T09:59:20.799Z,13.92
2022-11-19T10:01:48.292Z,14.14
2022-11-19T10:04:16.690Z,12.68
2022-11-19T10:06:55.713Z,12.84
2022-11-19T10:09:35.962Z,12.45
2022-11-19T10:12:06.727Z,12.57
2022-11-19T10:14:54.826Z,12.10
2022-11-19T10:17:42.259Z,11.89
2022-11-19T10:20:28.193Z,12.42
2022-11-19T10:22:58.533Z,12.23
2022-11-19T10:25:28.123Z,12.44
2022-11-19T10:28:00.400Z,12.94
2022-11-19T10:30:29.324Z,12.79
2022-11-19T10:33:00.467Z,12.67
2022-11-19T10:35:36.100Z,13.92
2022-11-19T10:38:04.443Z,14.53
2022-11-19T10:40:37.921Z,14.06
2022-11-19T10:43:13.527Z,14.01
2022-11-19T10:45:41.028Z,13.55
2022-11-19T10:48:27.328Z,14.29
2022-11-19T10:50:57.161Z,14.99
2022-11-19T10:53:29.600Z,15.10
2022-11-19T10:55:57.821Z,15.54
2022-11-19T10:58:26.033Z,15.59
2022-11-19T11:00:53.879Z,15.63
2022-11-19T11:03:47.820Z,15.00
2022-11-19T11:06:15.013Z,15.17
2022-11-19T11:08:49.623Z,14.41
2022-11-19T11:11:53.973Z,14.52
2022-11-19T11:14:40.477Z,13.69
2022-11-19T11:17:17.603Z,13.63
2022-11-19T11:19:45.088Z,13.60
2022-11-19T11:22:12.357Z,13.50
2022-11-19T11:24:39.583Z,12.77
2022-11-19T11:27:20.571Z,12.74
2022-11-19T11:29:47.746Z,12.59
2022-11-19T11:32:30.943Z,12.32
2022-11-19T11:35:03.491Z,12.09
2022-11-19T11:37:34.125Z,12.20
2022-11-19T11:40:01.410Z,12.38
2022-11-19T11:42:28.806Z,12.20
2022-11-19T11:44:57.789Z,11.91
2022-11-19T11:47:29.073Z,12.21
2022-11-19T11:49:57.939Z,12.01
2022-11-19T11:52:30.810Z,11.45
2022-11-19T11:55:04.704Z,12.07
2022-11-19T11:57:34.833Z,11.59
2022-11-19T12:00:04.218Z,11.14
2022-11-19T12:02:33.289Z,11.24
2022-11-19T12:05:05.296Z,10.92
2022-11-19T12:07:37.342Z,11.07
2022-11-19T12:10:08.024Z,11.59
2022-11-19T12:12:35.255Z,11.46
2022-11-19T12:15:08.709Z,11.51
2022-11-19T12:17:54.326Z,11.72
2022-11-19T12:20:30.671Z,11.30
2022-11-19T12:23:07.007Z,11.71
2022-11-19T12:25:39.695Z,11.36
2022-11-19T12:28:22.871Z,11.64
2022-11-19T12:31:05.541Z,11.85
2022-11-19T12:33:40.030Z,11.83
2022-11-19T12:36:10.793Z,11.93
2022-11-19T12:38:44.844Z,12.11
2022-11-19T12:41:16.243Z,11.78
2022-11-19T12:43:54.268Z,12.29
2022-11-19T12:46:40.432Z,12.30
2022-11-19T12:49:08.625Z,11.82
2022-11-19T12:51:54.031Z,12.43
2022-11-19T12:54:34.659Z,12.40
2022-11-19T12:57:02.533Z,12.14
2022-11-19T12:59:30.022Z,12.40
2022-11-19T13:01:57.244Z,12.83
2022-11-19T13:04:29.546Z,12.80
2022-11-19T13:07:00.183Z,12.51
2022-11-19T13:09:46.355Z,12.69
2022-11-19T13:12:15.199Z,12.67
2022-11-19T13:14:42.921Z,12.59
2022-11-19T13:17:15.508Z,12.38
2022-11-19T13:19:43.011Z,12.19
2022-11-19T13:22:15.501Z,12.44
2022-11-19T13:24:44.421Z,12.47
2022-11-19T13:27:20.231Z,12.43
2022-11-19T13:29:52.541Z,12.05
2022-11-19T13:32:26.746Z,12.26
2022-11-19T13:35:00.283Z,12.14
2022-11-19T13:37:34.700Z,12.10
2022-11-19T13:40:06.961Z,12.28
2022-11-19T13:43:17.241Z,11.93
2022-11-19T13:45:40.985Z,11.82
2022-11-19T13:48:11.046Z,12.11
2022-11-19T13:50:39.651Z,11.54
2022-11-19T13:53:07.157Z,11.70
2022-11-19T13:55:41.156Z,11.85
2022-11-19T13:58:16.401Z,11.80
2022-11-19T14:00:51.417Z,11.73
2022-11-19T14:03:32.798Z,12.01
2022-11-19T14:06:00.031Z,11.74
2022-11-19T14:08:33.538Z,11.69
2022-11-19T14:11:13.388Z,11.90
2022-11-19T14:13:40.842Z,12.01
2022-11-19T14:16:26.640Z,12.06
2022-11-19T14:19:13.412Z,11.92
2022-11-19T14:21:59.843Z,12.03
2022-11-19T14:24:46.100Z,11.94
2022-11-19T14:27:22.255Z,11.72
2022-11-19T14:29:49.680Z,11.78
2022-11-19T14:32:17.761Z,11.77
2022-11-19T14:34:46.890Z,11.71
2022-11-19T14:37:17.436Z,11.59
2022-11-19T14:39:45.281Z,11.59
2022-11-19T14:42:16.413Z,11.57
2022-11-19T14:44:44.646Z,11.51
2022-11-19T14:47:27.306Z,11.51
2022-11-19T14:49:56.203Z,11.44
2022-11-19T14:52:24.626Z,11.51
2022-11-19T14:55:06.079Z,11.44
2022-11-19T14:57:40.017Z,11.33
2022-11-19T15:00:27.742Z,10.98
2022-11-19T15:02:55.190Z,11.28
2022-11-19T15:05:23.378Z,11.02
2022-11-19T15:07:55.975Z,11.19
2022-11-19T15:10:26.597Z,10.95
2022-11-19T15:13:13.046Z,10.90
2022-11-19T15:15:41.150Z,11.14
2022-11-19T15:18:13.578Z,11.13
2022-11-19T15:21:04.599Z,11.14
2022-11-19T15:23:35.915Z,10.16
2022-11-19T15:26:36.190Z,10.96
2022-11-19T15:29:12.812Z,11.04
2022-11-19T15:31:49.650Z,11.00
2022-11-19T15:34:20.599Z,11.03
2022-11-19T15:36:49.298Z,10.88
2022-11-19T15:39:17.899Z,11.14
2022-11-19T15:42:01.979Z,11.27
2022-11-19T15:44:40.963Z,10.88
2022-11-19T15:47:11.982Z,11.06
2022-11-19T15:49:39.479Z,10.77
2022-11-19T15:52:18.325Z,11.27
2022-11-19T15:54:46.069Z,11.03
2022-11-19T15:57:16.367Z,10.37
2022-11-19T15:59:44.719Z,10.78
2022-11-19T16:02:19.479Z,10.17
2022-11-19T16:04:48.472Z,10.12
2022-11-19T16:07:16.191Z,10.13
2022-11-19T16:09:43.460Z,9.18
2022-11-19T16:12:36.917Z,9.26
2022-11-19T16:15:33.605Z,9.20
2022-11-19T16:18:01.095Z,8.34
2022-11-19T16:20:28.379Z,9.03
2022-11-19T16:23:03.059Z,8.64
2022-11-19T16:25:37.660Z,9.22
2022-11-19T16:28:25.223Z,8.68
2022-11-19T16:30:54.147Z,7.70
2022-11-19T16:33:25.475Z,7.79
2022-11-19T16:35:53.900Z,7.42
2022-11-19T16:38:23.142Z,8.08
2022-11-19T16:41:09.027Z,7.68
2022-11-19T16:43:36.626Z,8.28
2022-11-19T16:46:04.655Z,7.53
2022-11-19T16:48:50.420Z,6.27
2022-11-19T16:51:44.333Z,6.44
2022-11-19T16:54:11.737Z,6.59
2022-11-19T16:56:45.223Z,6.76
2022-11-19T16:59:20.337Z,7.33
2022-11-19T17:01:52.125Z,6.86
2022-11-19T17:04:19.873Z,7.05
2022-11-19T17:06:47.954Z,6.06
2022-11-19T17:09:42.345Z,6.03
2022-11-19T17:12:29.126Z,5.53
2022-11-19T17:14:56.362Z,5.84
2022-11-19T17:17:23.850Z,6.38
2022-11-19T17:19:51.113Z,5.45
2022-11-19T17:22:19.640Z,6.12
2022-11-19T17:24:47.331Z,6.27
2022-11-19T17:27:25.634Z,6.06
2022-11-19T17:29:58.699Z,6.51
2022-11-19T17:32:26.147Z,6.90
2022-11-19T17:34:55.395Z,6.89
2022-11-19T17:37:22.640Z,6.70
2022-11-19T17:39:49.849Z,6.18
2022-11-19T17:42:36.512Z,6.56
2022-11-19T17:45:10.333Z,6.19
2022-11-19T17:47:38.400Z,7.05
2022-11-19T17:50:05.949Z,6.67
2022-11-19T17:52:33.471Z,5.97
2022-11-19T17:55:16.994Z,6.21
2022-11-19T17:57:44.309Z,6.91
2022-11-19T18:00:12.062Z,6.34
2022-11-19T18:02:39.569Z,6.42
2022-11-19T18:05:16.744Z,5.99
2022-11-19T18:07:44.370Z,5.77
2022-11-19T18:10:11.730Z,5.92
2022-11-19T18:12:39.062Z,5.58
2022-11-19T18:15:06.908Z,6.31
2022-11-19T18:17:34.113Z,6.50
2022-11-19T18:20:01.552Z,6.64
2022-11-19T18:22:29.080Z,5.44
2022-11-19T18:24:57.300Z,5.78
2022-11-19T18:27:24.621Z,6.43
2022-11-19T18:29:52.583Z,6.09
2022-11-19T18:32:19.898Z,6.12
2022-11-19T18:34:47.396Z,5.52
2022-11-19T18:37:14.935Z,5.78
2022-11-19T18:39:42.238Z,6.11
2022-11-19T18:42:10.551Z,6.31
2022-11-19T18:44:38.662Z,6.56
2022-11-19T18:47:07.247Z,6.40
2022-11-19T18:49:35.163Z,6.41
2022-11-19T18:52:03.475Z,6.10
2022-11-19T18:54:30.668Z,6.05
2022-11-19T18:56:58.086Z,6.29
2022-11-19T18:59:25.691Z,5.94
2022-11-19T19:01:55.775Z,5.86
2022-11-19T19:04:24.046Z,6.28
2022-11-19T19:06:51.929Z,6.14
2022-11-19T19:09:20.439Z,6.19
2022-11-19T19:12:14.820Z,5.92
2022-11-19T19:14:42.625Z,6.08
2022-11-19T19:17:10.172Z,6.01
2022-11-19T19:19:37.922Z,5.93
2022-11-19T19:22:05.880Z,5.99
2022-11-19T19:24:33.283Z,5.87
2022-11-19T19:27:01.077Z,5.86
2022-11-19T19:29:28.722Z,6.47
2022-11-19T19:31:58.443Z,6.38
2022-11-19T19:34:26.086Z,6.59
2022-11-19T19:36:53.895Z,6.74
2022-11-19T19:39:22.187Z,5.72
2022-11-19T19:41:49.722Z,6.08
2022-11-19T19:44:17.330Z,6.07
2022-11-19T19:46:46.830Z,6.82
2022-11-19T19:49:14.250Z,6.45
2022-11-19T19:51:41.806Z,5.96
2022-11-19T19:54:09.089Z,6.29
2022-11-19T19:56:36.272Z,6.30
2022-11-19T19:59:04.069Z,6.26
2022-11-19T20:01:32.410Z,6.09
2022-11-19T20:04:01.608Z,6.01
2022-11-19T20:06:28.910Z,6.06
2022-11-19T20:08:56.218Z,6.30
2022-11-19T20:11:24.757Z,6.35
2022-11-19T20:13:53.080Z,6.26
2022-11-19T20:16:24.726Z,6.37
2022-11-19T20:18:53.052Z,6.10
2022-11-19T20:21:21.685Z,6.37
2022-11-19T20:23:49.075Z,6.20
2022-11-19T20:26:20.686Z,6.03
2022-11-19T20:28:48.388Z,6.21
2022-11-19T20:31:19.620Z,5.84
2022-11-19T20:33:47.645Z,6.08
2022-11-19T20:36:15.556Z,5.52
2022-11-19T20:38:45.935Z,5.64
2022-11-19T20:41:33.491Z,5.30
2022-11-19T20:44:19.658Z,5.47
2022-11-19T20:46:47.112Z,5.36
2022-11-19T20:49:17.076Z,5.66
2022-11-19T20:51:45.047Z,5.64
2022-11-19T20:54:12.778Z,5.67
2022-11-19T20:56:40.387Z,5.60
2022-11-19T20:59:07.684Z,5.50
2022-11-19T21:01:35.881Z,5.99
2022-11-19T21:04:03.869Z,5.79
2022-11-19T21:06:31.245Z,6.09
2022-11-19T21:08:58.845Z,6.19
2022-11-19T21:11:26.200Z,6.39
2022-11-19T21:13:53.429Z,5.80
2022-11-19T21:16:22.426Z,5.61
2022-11-19T21:18:49.852Z,4.98
2022-11-19T21:21:17.537Z,5.27
2022-11-19T21:23:45.352Z,4.82
2022-11-19T21:26:13.855Z,5.14
2022-11-19T21:28:41.186Z,5.19
2022-11-19T21:31:09.128Z,4.99
2022-11-19T21:33:36.455Z,5.07
2022-11-19T21:36:04.434Z,4.81
2022-11-19T21:38:31.965Z,4.32
2022-11-19T21:40:59.207Z,3.94
2022-11-19T21:43:27.371Z,4.41
2022-11-19T21:45:55.283Z,4.36
2022-11-19T21:48:22.548Z,4.65
2022-11-19T21:50:50.039Z,4.82
2022-11-19T21:53:17.873Z,5.15
2022-11-19T21:55:45.229Z,5.02
2022-11-19T21:58:13.142Z,5.55
2022-11-19T22:00:41.126Z,5.28
2022-11-19T22:03:08.864Z,5.74
2022-11-19T22:05:36.436Z,4.84
2022-11-19T22:08:03.907Z,4.50
2022-11-19T22:10:31.410Z,4.00
2022-11-19T22:12:58.717Z,4.39
2022-11-19T22:15:26.497Z,4.65
2022-11-19T22:17:54.916Z,5.16
2022-11-19T22:20:23.871Z,4.76
2022-11-19T22:22:51.191Z,4.90
2022-11-19T22:25:18.817Z,5.64
2022-11-19T22:27:46.064Z,5.91
2022-11-19T22:30:13.521Z,5.37
2022-11-19T22:32:41.050Z,5.58
2022-11-19T22:35:08.458Z,5.51
2022-11-19T22:37:35.716Z,5.12
2022-11-19T22:40:03.282Z,5.00
2022-11-19T22:42:30.550Z,4.96
2022-11-19T22:44:57.832Z,4.49
2022-11-19T22:47:25.276Z,4.76
2022-11-19T22:49:57.988Z,5.14
2022-11-19T22:52:25.510Z,5.09
2022-11-19T22:54:52.846Z,4.92
2022-11-19T22:57:20.090Z,4.81
2022-11-19T22:59:47.750Z,4.85
2022-11-19T23:02:14.965Z,4.47
2022-11-19T23:04:42.166Z,4.75
2022-11-19T23:07:09.753Z,4.67
2022-11-19T23:09:37.098Z,4.82
2022-11-19T23:12:23.132Z,4.60
2022-11-19T23:14:50.863Z,5.25
2022-11-19T23:17:48.337Z,4.95
2022-11-19T23:20:36.529Z,5.18
2022-11-19T23:23:03.737Z,4.91
2022-11-19T23:25:31.512Z,5.03
2022-11-19T23:28:01.287Z,5.20
2022-11-19T23:30:38.028Z,4.55
2022-11-19T23:33:05.288Z,5.30
2022-11-19T23:35:35.704Z,5.25
2022-11-19T23:38:02.911Z,5.98
2022-11-19T23:40:30.399Z,6.02
2022-11-19T23:42:57.933Z,5.69
2022-11-19T23:45:25.147Z,5.86
2022-11-19T23:47:52.431Z,5.57
2022-11-19T23:50:19.970Z,5.24
2022-11-19T23:52:47.232Z,5.28
2022-11-19T23:55:14.475Z,5.82
2022-11-19T23:57:42.011Z,5.02
